sensor_id;sensor_type;location;lat;lon;timestamp;P1;durP1;ratioP1;P2;durP2;ratioP2
14470;SDS011;7321;50.802;4.336;2023-07-09T00:00:59;8.73;;;5.78;;
14470;SDS011;7321;50.802;4.336;2023-07-09T00:03:25;7.60;;;6.22;;
14470;SDS011;7321;50.802;4.336;2023-07-09T00:05:51;10.90;;;6.30;;
14470;SDS011;7321;50.802;4.336;2023-07-09T00:08:23;7.40;;;6.68;;
14470;SDS011;7321;50.802;4.336;2023-07-09T00:10:49;7.75;;;6.25;;
14470;SDS011;7321;50.802;4.336;2023-07-09T00:13:15;7.50;;;6.18;;
14470;SDS011;7321;50.802;4.336;2023-07-09T00:15:41;9.10;;;6.35;;
14470;SDS011;7321;50.802;4.336;2023-07-09T00:18:07;7.93;;;6.07;;
14470;SDS011;7321;50.802;4.336;2023-07-09T00:20:34;7.63;;;6.13;;
14470;SDS011;7321;50.802;4.336;2023-07-09T00:23:00;9.93;;;6.43;;
14470;SDS011;7321;50.802;4.336;2023-07-09T00:25:30;9.05;;;6.82;;
14470;SDS011;7321;50.802;4.336;2023-07-09T00:27:56;7.22;;;6.25;;
14470;SDS011;7321;50.802;4.336;2023-07-09T00:30:22;9.50;;;6.80;;
14470;SDS011;7321;50.802;4.336;2023-07-09T00:32:49;8.90;;;7.15;;
14470;SDS011;7321;50.802;4.336;2023-07-09T00:35:17;9.05;;;6.97;;
14470;SDS011;7321;50.802;4.336;2023-07-09T00:37:44;9.30;;;6.55;;
14470;SDS011;7321;50.802;4.336;2023-07-09T00:40:15;8.98;;;6.40;;
14470;SDS011;7321;50.802;4.336;2023-07-09T00:42:47;9.07;;;6.63;;
14470;SDS011;7321;50.802;4.336;2023-07-09T00:45:19;8.18;;;6.25;;
14470;SDS011;7321;50.802;4.336;2023-07-09T00:50:28;7.53;;;6.28;;
14470;SDS011;7321;50.802;4.336;2023-07-09T00:53:19;7.25;;;6.15;;
14470;SDS011;7321;50.802;4.336;2023-07-09T00:55:53;7.50;;;6.38;;
14470;SDS011;7321;50.802;4.336;2023-07-09T00:58:23;8.43;;;6.65;;
14470;SDS011;7321;50.802;4.336;2023-07-09T01:00:53;7.15;;;6.53;;
14470;SDS011;7321;50.802;4.336;2023-07-09T01:03:29;7.10;;;6.20;;
14470;SDS011;7321;50.802;4.336;2023-07-09T01:06:00;7.63;;;6.47;;
14470;SDS011;7321;50.802;4.336;2023-07-09T01:08:28;7.10;;;6.30;;
14470;SDS011;7321;50.802;4.336;2023-07-09T01:10:57;9.32;;;6.40;;
14470;SDS011;7321;50.802;4.336;2023-07-09T01:13:27;9.20;;;6.32;;
14470;SDS011;7321;50.802;4.336;2023-07-09T01:15:54;8.23;;;6.22;;
14470;SDS011;7321;50.802;4.336;2023-07-09T01:18:21;9.57;;;6.10;;
14470;SDS011;7321;50.802;4.336;2023-07-09T01:20:47;6.10;;;5.53;;
14470;SDS011;7321;50.802;4.336;2023-07-09T01:23:13;6.15;;;5.55;;
14470;SDS011;7321;50.802;4.336;2023-07-09T01:25:44;7.43;;;5.90;;
14470;SDS011;7321;50.802;4.336;2023-07-09T01:28:17;5.97;;;5.38;;
14470;SDS011;7321;50.802;4.336;2023-07-09T01:30:44;6.95;;;5.80;;
14470;SDS011;7321;50.802;4.336;2023-07-09T01:33:10;7.80;;;5.13;;
14470;SDS011;7321;50.802;4.336;2023-07-09T01:35:37;7.63;;;5.32;;
14470;SDS011;7321;50.802;4.336;2023-07-09T01:38:06;7.80;;;5.30;;
14470;SDS011;7321;50.802;4.336;2023-07-09T01:40:33;6.38;;;5.20;;
14470;SDS011;7321;50.802;4.336;2023-07-09T01:43:00;7.03;;;5.45;;
14470;SDS011;7321;50.802;4.336;2023-07-09T01:45:31;5.63;;;4.95;;
14470;SDS011;7321;50.802;4.336;2023-07-09T01:47:58;7.70;;;5.20;;
14470;SDS011;7321;50.802;4.336;2023-07-09T01:50:24;9.45;;;5.00;;
14470;SDS011;7321;50.802;4.336;2023-07-09T01:52:51;5.15;;;4.55;;
14470;SDS011;7321;50.802;4.336;2023-07-09T01:55:18;6.53;;;4.82;;
14470;SDS011;7321;50.802;4.336;2023-07-09T01:57:45;7.10;;;5.10;;
14470;SDS011;7321;50.802;4.336;2023-07-09T02:00:12;9.40;;;5.10;;
14470;SDS011;7321;50.802;4.336;2023-07-09T02:02:40;8.57;;;5.35;;
14470;SDS011;7321;50.802;4.336;2023-07-09T02:05:11;7.07;;;5.20;;
14470;SDS011;7321;50.802;4.336;2023-07-09T02:07:39;9.13;;;5.20;;
14470;SDS011;7321;50.802;4.336;2023-07-09T02:10:05;6.18;;;4.82;;
14470;SDS011;7321;50.802;4.336;2023-07-09T02:12:32;10.18;;;5.32;;
14470;SDS011;7321;50.802;4.336;2023-07-09T02:14:58;5.57;;;5.03;;
14470;SDS011;7321;50.802;4.336;2023-07-09T02:17:24;5.40;;;4.70;;
14470;SDS011;7321;50.802;4.336;2023-07-09T02:19:49;6.05;;;4.93;;
14470;SDS011;7321;50.802;4.336;2023-07-09T02:22:15;10.90;;;5.47;;
14470;SDS011;7321;50.802;4.336;2023-07-09T02:24:41;5.43;;;4.93;;
14470;SDS011;7321;50.802;4.336;2023-07-09T02:27:07;5.50;;;5.00;;
14470;SDS011;7321;50.802;4.336;2023-07-09T02:29:35;5.43;;;4.85;;
14470;SDS011;7321;50.802;4.336;2023-07-09T02:32:02;6.72;;;5.20;;
14470;SDS011;7321;50.802;4.336;2023-07-09T02:34:29;7.00;;;5.28;;
14470;SDS011;7321;50.802;4.336;2023-07-09T02:36:56;5.85;;;4.78;;
14470;SDS011;7321;50.802;4.336;2023-07-09T02:39:23;6.78;;;4.90;;
14470;SDS011;7321;50.802;4.336;2023-07-09T02:41:49;8.10;;;5.10;;
14470;SDS011;7321;50.802;4.336;2023-07-09T02:44:16;6.78;;;4.75;;
14470;SDS011;7321;50.802;4.336;2023-07-09T02:46:42;7.70;;;5.20;;
14470;SDS011;7321;50.802;4.336;2023-07-09T02:49:09;6.80;;;5.03;;
14470;SDS011;7321;50.802;4.336;2023-07-09T02:51:37;5.93;;;4.28;;
14470;SDS011;7321;50.802;4.336;2023-07-09T02:54:03;5.35;;;4.85;;
14470;SDS011;7321;50.802;4.336;2023-07-09T02:56:29;5.05;;;4.55;;
14470;SDS011;7321;50.802;4.336;2023-07-09T02:58:56;7.45;;;4.90;;
14470;SDS011;7321;50.802;4.336;2023-07-09T03:01:22;6.30;;;5.07;;
14470;SDS011;7321;50.802;4.336;2023-07-09T03:03:52;7.68;;;5.57;;
14470;SDS011;7321;50.802;4.336;2023-07-09T03:06:23;6.45;;;5.40;;
14470;SDS011;7321;50.802;4.336;2023-07-09T03:08:50;7.47;;;5.28;;
14470;SDS011;7321;50.802;4.336;2023-07-09T03:11:17;7.93;;;4.55;;
14470;SDS011;7321;50.802;4.336;2023-07-09T03:13:43;7.00;;;5.35;;
14470;SDS011;7321;50.802;4.336;2023-07-09T03:16:10;6.30;;;5.00;;
14470;SDS011;7321;50.802;4.336;2023-07-09T03:18:37;6.75;;;5.60;;
14470;SDS011;7321;50.802;4.336;2023-07-09T03:21:03;5.97;;;4.60;;
14470;SDS011;7321;50.802;4.336;2023-07-09T03:23:29;6.65;;;5.40;;
14470;SDS011;7321;50.802;4.336;2023-07-09T03:25:55;5.68;;;5.05;;
14470;SDS011;7321;50.802;4.336;2023-07-09T03:28:21;8.98;;;5.50;;
14470;SDS011;7321;50.802;4.336;2023-07-09T03:30:48;7.05;;;6.00;;
14470;SDS011;7321;50.802;4.336;2023-07-09T03:33:15;7.68;;;5.97;;
14470;SDS011;7321;50.802;4.336;2023-07-09T03:35:42;6.13;;;5.53;;
14470;SDS011;7321;50.802;4.336;2023-07-09T03:38:09;8.35;;;5.97;;
14470;SDS011;7321;50.802;4.336;2023-07-09T03:40:36;7.63;;;6.15;;
14470;SDS011;7321;50.802;4.336;2023-07-09T03:43:06;7.95;;;6.78;;
14470;SDS011;7321;50.802;4.336;2023-07-09T03:45:33;8.32;;;6.50;;
14470;SDS011;7321;50.802;4.336;2023-07-09T03:48:00;9.98;;;6.28;;
14470;SDS011;7321;50.802;4.336;2023-07-09T03:50:26;8.15;;;6.78;;
14470;SDS011;7321;50.802;4.336;2023-07-09T03:52:52;8.40;;;6.10;;
14470;SDS011;7321;50.802;4.336;2023-07-09T03:55:18;9.10;;;6.95;;
14470;SDS011;7321;50.802;4.336;2023-07-09T03:57:44;7.05;;;6.35;;
14470;SDS011;7321;50.802;4.336;2023-07-09T04:00:10;9.90;;;6.30;;
14470;SDS011;7321;50.802;4.336;2023-07-09T04:02:37;9.02;;;6.80;;
14470;SDS011;7321;50.802;4.336;2023-07-09T04:05:04;8.80;;;6.70;;
14470;SDS011;7321;50.802;4.336;2023-07-09T04:07:30;9.05;;;6.95;;
14470;SDS011;7321;50.802;4.336;2023-07-09T04:09:56;11.02;;;7.05;;
14470;SDS011;7321;50.802;4.336;2023-07-09T04:12:22;7.28;;;6.57;;
14470;SDS011;7321;50.802;4.336;2023-07-09T04:14:48;9.38;;;6.50;;
14470;SDS011;7321;50.802;4.336;2023-07-09T04:17:13;8.48;;;7.05;;
14470;SDS011;7321;50.802;4.336;2023-07-09T04:19:39;9.40;;;6.93;;
14470;SDS011;7321;50.802;4.336;2023-07-09T04:22:05;8.82;;;6.65;;
14470;SDS011;7321;50.802;4.336;2023-07-09T04:24:31;12.52;;;7.82;;
14470;SDS011;7321;50.802;4.336;2023-07-09T04:26:58;8.10;;;7.15;;
14470;SDS011;7321;50.802;4.336;2023-07-09T04:29:28;9.90;;;7.13;;
14470;SDS011;7321;50.802;4.336;2023-07-09T04:31:54;9.50;;;6.95;;
14470;SDS011;7321;50.802;4.336;2023-07-09T04:34:20;10.70;;;6.90;;
14470;SDS011;7321;50.802;4.336;2023-07-09T04:36:47;7.10;;;6.28;;
14470;SDS011;7321;50.802;4.336;2023-07-09T04:39:12;12.50;;;7.15;;
14470;SDS011;7321;50.802;4.336;2023-07-09T04:41:39;11.38;;;6.90;;
14470;SDS011;7321;50.802;4.336;2023-07-09T04:44:04;8.77;;;7.70;;
14470;SDS011;7321;50.802;4.336;2023-07-09T04:46:30;11.23;;;7.60;;
14470;SDS011;7321;50.802;4.336;2023-07-09T04:48:56;9.73;;;7.05;;
14470;SDS011;7321;50.802;4.336;2023-07-09T04:51:22;8.13;;;6.55;;
14470;SDS011;7321;50.802;4.336;2023-07-09T04:53:47;10.25;;;7.32;;
14470;SDS011;7321;50.802;4.336;2023-07-09T04:56:17;9.52;;;7.20;;
14470;SDS011;7321;50.802;4.336;2023-07-09T04:58:43;12.57;;;7.22;;
14470;SDS011;7321;50.802;4.336;2023-07-09T05:01:09;8.75;;;6.57;;
14470;SDS011;7321;50.802;4.336;2023-07-09T05:03:34;10.23;;;6.60;;
14470;SDS011;7321;50.802;4.336;2023-07-09T05:06:00;9.57;;;6.55;;
14470;SDS011;7321;50.802;4.336;2023-07-09T05:08:26;7.90;;;6.72;;
14470;SDS011;7321;50.802;4.336;2023-07-09T05:10:52;10.32;;;7.00;;
14470;SDS011;7321;50.802;4.336;2023-07-09T05:13:18;9.88;;;6.97;;
14470;SDS011;7321;50.802;4.336;2023-07-09T05:15:45;9.95;;;6.97;;
14470;SDS011;7321;50.802;4.336;2023-07-09T05:18:12;9.77;;;7.25;;
14470;SDS011;7321;50.802;4.336;2023-07-09T05:20:39;11.15;;;6.95;;
14470;SDS011;7321;50.802;4.336;2023-07-09T05:23:06;9.88;;;6.50;;
14470;SDS011;7321;50.802;4.336;2023-07-09T05:25:33;10.18;;;6.90;;
14470;SDS011;7321;50.802;4.336;2023-07-09T05:27:59;9.57;;;6.72;;
14470;SDS011;7321;50.802;4.336;2023-07-09T05:30:25;9.48;;;6.75;;
14470;SDS011;7321;50.802;4.336;2023-07-09T05:32:51;9.57;;;6.10;;
14470;SDS011;7321;50.802;4.336;2023-07-09T05:35:18;8.27;;;6.88;;
14470;SDS011;7321;50.802;4.336;2023-07-09T05:37:44;9.18;;;6.57;;
14470;SDS011;7321;50.802;4.336;2023-07-09T05:40:10;10.95;;;6.68;;
14470;SDS011;7321;50.802;4.336;2023-07-09T05:42:36;6.88;;;6.13;;
14470;SDS011;7321;50.802;4.336;2023-07-09T05:45:02;8.98;;;6.38;;
14470;SDS011;7321;50.802;4.336;2023-07-09T05:47:28;9.25;;;6.30;;
14470;SDS011;7321;50.802;4.336;2023-07-09T05:49:54;7.53;;;6.72;;
14470;SDS011;7321;50.802;4.336;2023-07-09T05:52:20;8.88;;;7.13;;
14470;SDS011;7321;50.802;4.336;2023-07-09T05:54:48;10.68;;;6.90;;
14470;SDS011;7321;50.802;4.336;2023-07-09T05:57:15;9.73;;;7.03;;
14470;SDS011;7321;50.802;4.336;2023-07-09T05:59:42;10.18;;;6.88;;
14470;SDS011;7321;50.802;4.336;2023-07-09T06:02:14;9.70;;;7.25;;
14470;SDS011;7321;50.802;4.336;2023-07-09T06:04:42;9.52;;;7.07;;
14470;SDS011;7321;50.802;4.336;2023-07-09T06:07:08;11.93;;;6.95;;
14470;SDS011;7321;50.802;4.336;2023-07-09T06:09:34;9.75;;;7.32;;
14470;SDS011;7321;50.802;4.336;2023-07-09T06:12:01;9.80;;;6.68;;
14470;SDS011;7321;50.802;4.336;2023-07-09T06:14:28;10.07;;;6.97;;
14470;SDS011;7321;50.802;4.336;2023-07-09T06:16:54;9.75;;;6.90;;
14470;SDS011;7321;50.802;4.336;2023-07-09T06:19:20;7.50;;;6.70;;
14470;SDS011;7321;50.802;4.336;2023-07-09T06:21:45;8.55;;;6.85;;
14470;SDS011;7321;50.802;4.336;2023-07-09T06:24:11;10.10;;;6.53;;
14470;SDS011;7321;50.802;4.336;2023-07-09T06:26:38;13.02;;;7.20;;
14470;SDS011;7321;50.802;4.336;2023-07-09T06:29:03;8.52;;;7.55;;
14470;SDS011;7321;50.802;4.336;2023-07-09T06:31:29;9.73;;;8.32;;
14470;SDS011;7321;50.802;4.336;2023-07-09T06:33:55;10.85;;;7.75;;
14470;SDS011;7321;50.802;4.336;2023-07-09T06:36:21;11.60;;;8.45;;
14470;SDS011;7321;50.802;4.336;2023-07-09T06:38:47;11.32;;;8.60;;
14470;SDS011;7321;50.802;4.336;2023-07-09T06:41:13;13.07;;;8.65;;
14470;SDS011;7321;50.802;4.336;2023-07-09T06:43:39;9.50;;;8.20;;
14470;SDS011;7321;50.802;4.336;2023-07-09T06:46:06;9.43;;;8.20;;
14470;SDS011;7321;50.802;4.336;2023-07-09T06:48:35;11.07;;;7.85;;
14470;SDS011;7321;50.802;4.336;2023-07-09T06:51:01;12.07;;;7.38;;
14470;SDS011;7321;50.802;4.336;2023-07-09T06:53:27;11.15;;;7.57;;
14470;SDS011;7321;50.802;4.336;2023-07-09T06:55:54;12.23;;;7.80;;
14470;SDS011;7321;50.802;4.336;2023-07-09T06:58:24;11.00;;;8.20;;
14470;SDS011;7321;50.802;4.336;2023-07-09T07:00:51;10.48;;;9.25;;
14470;SDS011;7321;50.802;4.336;2023-07-09T07:03:17;10.88;;;9.07;;
14470;SDS011;7321;50.802;4.336;2023-07-09T07:05:44;16.05;;;13.65;;
14470;SDS011;7321;50.802;4.336;2023-07-09T07:08:10;13.73;;;12.30;;
14470;SDS011;7321;50.802;4.336;2023-07-09T07:10:38;16.25;;;12.85;;
14470;SDS011;7321;50.802;4.336;2023-07-09T07:13:04;21.48;;;19.17;;
14470;SDS011;7321;50.802;4.336;2023-07-09T07:15:29;30.48;;;27.48;;
14470;SDS011;7321;50.802;4.336;2023-07-09T07:17:55;30.98;;;27.70;;
14470;SDS011;7321;50.802;4.336;2023-07-09T07:20:22;28.63;;;25.73;;
14470;SDS011;7321;50.802;4.336;2023-07-09T07:22:48;28.05;;;25.05;;
14470;SDS011;7321;50.802;4.336;2023-07-09T07:25:14;29.55;;;26.50;;
14470;SDS011;7321;50.802;4.336;2023-07-09T07:27:40;30.83;;;27.73;;
14470;SDS011;7321;50.802;4.336;2023-07-09T07:30:07;31.75;;;28.58;;
14470;SDS011;7321;50.802;4.336;2023-07-09T07:32:46;30.45;;;27.35;;
14470;SDS011;7321;50.802;4.336;2023-07-09T07:35:14;29.80;;;26.70;;
14470;SDS011;7321;50.802;4.336;2023-07-09T07:37:40;38.28;;;34.58;;
14470;SDS011;7321;50.802;4.336;2023-07-09T07:40:06;40.13;;;36.13;;
14470;SDS011;7321;50.802;4.336;2023-07-09T07:42:33;42.63;;;38.40;;
14470;SDS011;7321;50.802;4.336;2023-07-09T07:44:59;39.80;;;35.90;;
14470;SDS011;7321;50.802;4.336;2023-07-09T07:47:25;41.92;;;37.65;;
14470;SDS011;7321;50.802;4.336;2023-07-09T07:49:55;41.33;;;36.35;;
14470;SDS011;7321;50.802;4.336;2023-07-09T07:52:21;40.70;;;36.38;;
14470;SDS011;7321;50.802;4.336;2023-07-09T07:54:47;41.95;;;37.55;;
14470;SDS011;7321;50.802;4.336;2023-07-09T07:57:13;40.67;;;36.47;;
14470;SDS011;7321;50.802;4.336;2023-07-09T07:59:42;39.03;;;33.72;;
14470;SDS011;7321;50.802;4.336;2023-07-09T08:02:10;35.28;;;31.48;;
14470;SDS011;7321;50.802;4.336;2023-07-09T08:04:38;34.65;;;31.05;;
14470;SDS011;7321;50.802;4.336;2023-07-09T08:07:08;36.38;;;31.95;;
14470;SDS011;7321;50.802;4.336;2023-07-09T08:09:35;35.30;;;31.58;;
14470;SDS011;7321;50.802;4.336;2023-07-09T08:12:02;35.05;;;31.30;;
14470;SDS011;7321;50.802;4.336;2023-07-09T08:14:38;33.53;;;30.00;;
14470;SDS011;7321;50.802;4.336;2023-07-09T08:17:05;34.08;;;30.35;;
14470;SDS011;7321;50.802;4.336;2023-07-09T08:19:32;33.38;;;29.45;;
14470;SDS011;7321;50.802;4.336;2023-07-09T08:22:08;35.17;;;31.58;;
14470;SDS011;7321;50.802;4.336;2023-07-09T08:24:34;30.40;;;27.17;;
14470;SDS011;7321;50.802;4.336;2023-07-09T08:27:00;31.33;;;27.90;;
14470;SDS011;7321;50.802;4.336;2023-07-09T08:29:26;31.80;;;28.42;;
14470;SDS011;7321;50.802;4.336;2023-07-09T08:31:52;34.75;;;31.05;;
14470;SDS011;7321;50.802;4.336;2023-07-09T08:34:18;30.23;;;27.13;;
14470;SDS011;7321;50.802;4.336;2023-07-09T08:36:44;48.95;;;43.70;;
14470;SDS011;7321;50.802;4.336;2023-07-09T08:39:10;28.95;;;25.92;;
14470;SDS011;7321;50.802;4.336;2023-07-09T08:50:01;29.75;;;25.52;;
14470;SDS011;7321;50.802;4.336;2023-07-09T08:52:38;28.90;;;25.85;;
14470;SDS011;7321;50.802;4.336;2023-07-09T08:55:14;25.92;;;22.88;;
14470;SDS011;7321;50.802;4.336;2023-07-09T08:57:43;26.63;;;22.10;;
14470;SDS011;7321;50.802;4.336;2023-07-09T09:00:32;24.75;;;22.23;;
14470;SDS011;7321;50.802;4.336;2023-07-09T09:06:15;23.60;;;21.15;;
14470;SDS011;7321;50.802;4.336;2023-07-09T09:14:22;22.40;;;20.17;;
14470;SDS011;7321;50.802;4.336;2023-07-09T09:16:58;23.50;;;20.95;;
14470;SDS011;7321;50.802;4.336;2023-07-09T09:22:02;23.80;;;18.98;;
14470;SDS011;7321;50.802;4.336;2023-07-09T09:24:39;22.23;;;19.88;;
14470;SDS011;7321;50.802;4.336;2023-07-09T09:27:42;23.35;;;19.77;;
14470;SDS011;7321;50.802;4.336;2023-07-09T09:30:19;23.40;;;20.08;;
14470;SDS011;7321;50.802;4.336;2023-07-09T09:35:34;20.08;;;17.35;;
14470;SDS011;7321;50.802;4.336;2023-07-09T09:38:02;22.65;;;19.27;;
14470;SDS011;7321;50.802;4.336;2023-07-09T09:40:35;25.83;;;19.15;;
14470;SDS011;7321;50.802;4.336;2023-07-09T09:43:01;23.17;;;20.77;;
14470;SDS011;7321;50.802;4.336;2023-07-09T09:45:35;20.98;;;18.40;;
14470;SDS011;7321;50.802;4.336;2023-07-09T09:50:59;25.52;;;20.92;;
14470;SDS011;7321;50.802;4.336;2023-07-09T09:53:29;23.73;;;21.33;;
14470;SDS011;7321;50.802;4.336;2023-07-09T09:56:03;23.40;;;20.75;;
14470;SDS011;7321;50.802;4.336;2023-07-09T09:58:31;19.88;;;17.15;;
14470;SDS011;7321;50.802;4.336;2023-07-09T10:00:57;21.58;;;19.27;;
14470;SDS011;7321;50.802;4.336;2023-07-09T10:03:35;21.17;;;18.98;;
14470;SDS011;7321;50.802;4.336;2023-07-09T10:06:06;22.85;;;20.45;;
14470;SDS011;7321;50.802;4.336;2023-07-09T10:11:24;21.42;;;19.05;;
14470;SDS011;7321;50.802;4.336;2023-07-09T10:14:08;20.95;;;18.70;;
14470;SDS011;7321;50.802;4.336;2023-07-09T10:16:47;21.00;;;18.77;;
14470;SDS011;7321;50.802;4.336;2023-07-09T10:19:30;22.17;;;19.92;;
14470;SDS011;7321;50.802;4.336;2023-07-09T10:22:10;21.90;;;18.90;;
14470;SDS011;7321;50.802;4.336;2023-07-09T10:28:01;21.02;;;18.92;;
14470;SDS011;7321;50.802;4.336;2023-07-09T10:33:33;17.88;;;16.13;;
14470;SDS011;7321;50.802;4.336;2023-07-09T10:38:52;16.73;;;14.20;;
14470;SDS011;7321;50.802;4.336;2023-07-09T10:41:24;17.50;;;14.63;;
14470;SDS011;7321;50.802;4.336;2023-07-09T10:44:04;19.85;;;17.75;;
14470;SDS011;7321;50.802;4.336;2023-07-09T10:46:39;19.52;;;17.48;;
14470;SDS011;7321;50.802;4.336;2023-07-09T10:49:09;16.77;;;15.27;;
14470;SDS011;7321;50.802;4.336;2023-07-09T10:51:49;19.42;;;16.88;;
14470;SDS011;7321;50.802;4.336;2023-07-09T10:57:17;18.95;;;17.15;;
14470;SDS011;7321;50.802;4.336;2023-07-09T10:59:48;18.40;;;15.68;;
14470;SDS011;7321;50.802;4.336;2023-07-09T11:02:19;15.23;;;13.77;;
14470;SDS011;7321;50.802;4.336;2023-07-09T11:04:53;14.90;;;12.68;;
14470;SDS011;7321;50.802;4.336;2023-07-09T11:13:33;12.38;;;11.18;;
14470;SDS011;7321;50.802;4.336;2023-07-09T11:15:43;12.43;;;10.88;;
14470;SDS011;7321;50.802;4.336;2023-07-09T11:18:19;12.45;;;11.15;;
14470;SDS011;7321;50.802;4.336;2023-07-09T11:21:00;10.93;;;9.75;;
14470;SDS011;7321;50.802;4.336;2023-07-09T11:23:42;11.43;;;9.18;;
14470;SDS011;7321;50.802;4.336;2023-07-09T11:26:26;10.68;;;8.45;;
14470;SDS011;7321;50.802;4.336;2023-07-09T11:31:40;9.93;;;7.80;;
14470;SDS011;7321;50.802;4.336;2023-07-09T11:34:16;9.02;;;7.45;;
14470;SDS011;7321;50.802;4.336;2023-07-09T11:39:28;7.03;;;6.32;;
14470;SDS011;7321;50.802;4.336;2023-07-09T11:41:55;6.95;;;6.35;;
14470;SDS011;7321;50.802;4.336;2023-07-09T11:44:25;10.48;;;7.13;;
14470;SDS011;7321;50.802;4.336;2023-07-09T11:49:27;8.65;;;6.72;;
14470;SDS011;7321;50.802;4.336;2023-07-09T11:51:59;7.07;;;6.38;;
14470;SDS011;7321;50.802;4.336;2023-07-09T11:54:40;8.25;;;6.63;;
14470;SDS011;7321;50.802;4.336;2023-07-09T11:57:13;11.73;;;9.52;;
14470;SDS011;7321;50.802;4.336;2023-07-09T11:59:40;7.13;;;6.22;;
14470;SDS011;7321;50.802;4.336;2023-07-09T12:02:15;7.15;;;6.45;;
14470;SDS011;7321;50.802;4.336;2023-07-09T12:04:50;14.85;;;7.32;;
14470;SDS011;7321;50.802;4.336;2023-07-09T12:07:17;16.05;;;13.27;;
14470;SDS011;7321;50.802;4.336;2023-07-09T12:09:49;16.25;;;14.10;;
14470;SDS011;7321;50.802;4.336;2023-07-09T12:12:25;17.92;;;15.57;;
14470;SDS011;7321;50.802;4.336;2023-07-09T12:14:52;16.77;;;10.25;;
14470;SDS011;7321;50.802;4.336;2023-07-09T12:17:22;16.15;;;11.20;;
14470;SDS011;7321;50.802;4.336;2023-07-09T12:19:52;8.90;;;7.07;;
14470;SDS011;7321;50.802;4.336;2023-07-09T12:22:21;20.23;;;15.43;;
14470;SDS011;7321;50.802;4.336;2023-07-09T12:24:48;9.15;;;7.50;;
14470;SDS011;7321;50.802;4.336;2023-07-09T12:27:17;11.38;;;8.00;;
14470;SDS011;7321;50.802;4.336;2023-07-09T12:29:50;12.00;;;7.63;;
14470;SDS011;7321;50.802;4.336;2023-07-09T12:32:20;9.55;;;7.30;;
14470;SDS011;7321;50.802;4.336;2023-07-09T12:34:51;11.15;;;7.90;;
14470;SDS011;7321;50.802;4.336;2023-07-09T12:37:18;12.00;;;7.95;;
14470;SDS011;7321;50.802;4.336;2023-07-09T12:39:50;11.13;;;7.90;;
14470;SDS011;7321;50.802;4.336;2023-07-09T12:42:25;8.38;;;7.57;;
14470;SDS011;7321;50.802;4.336;2023-07-09T12:45:02;8.82;;;7.93;;
14470;SDS011;7321;50.802;4.336;2023-07-09T12:47:29;11.73;;;9.13;;
14470;SDS011;7321;50.802;4.336;2023-07-09T12:50:03;11.98;;;8.70;;
14470;SDS011;7321;50.802;4.336;2023-07-09T12:52:45;13.25;;;9.55;;
14470;SDS011;7321;50.802;4.336;2023-07-09T12:55:20;12.77;;;9.93;;
14470;SDS011;7321;50.802;4.336;2023-07-09T12:57:47;14.20;;;11.30;;
14470;SDS011;7321;50.802;4.336;2023-07-09T13:00:16;14.55;;;11.02;;
14470;SDS011;7321;50.802;4.336;2023-07-09T13:02:43;11.55;;;10.25;;
14470;SDS011;7321;50.802;4.336;2023-07-09T13:05:20;12.90;;;10.00;;
14470;SDS011;7321;50.802;4.336;2023-07-09T13:07:57;11.93;;;10.18;;
14470;SDS011;7321;50.802;4.336;2023-07-09T13:10:29;10.85;;;9.75;;
14470;SDS011;7321;50.802;4.336;2023-07-09T13:12:57;12.68;;;9.35;;
14470;SDS011;7321;50.802;4.336;2023-07-09T13:17:59;10.25;;;9.20;;
14470;SDS011;7321;50.802;4.336;2023-07-09T13:20:28;73.15;;;65.13;;
14470;SDS011;7321;50.802;4.336;2023-07-09T13:22:54;11.25;;;9.50;;
14470;SDS011;7321;50.802;4.336;2023-07-09T13:25:24;13.23;;;10.00;;
14470;SDS011;7321;50.802;4.336;2023-07-09T13:27:50;11.95;;;9.55;;
14470;SDS011;7321;50.802;4.336;2023-07-09T13:30:16;10.18;;;9.18;;
14470;SDS011;7321;50.802;4.336;2023-07-09T13:32:44;11.20;;;9.45;;
14470;SDS011;7321;50.802;4.336;2023-07-09T13:35:16;11.13;;;9.55;;
14470;SDS011;7321;50.802;4.336;2023-07-09T13:37:44;11.30;;;9.55;;
14470;SDS011;7321;50.802;4.336;2023-07-09T13:40:11;10.23;;;9.23;;
14470;SDS011;7321;50.802;4.336;2023-07-09T13:42:43;10.75;;;9.10;;
14470;SDS011;7321;50.802;4.336;2023-07-09T13:45:20;11.50;;;9.32;;
14470;SDS011;7321;50.802;4.336;2023-07-09T13:47:48;10.50;;;8.75;;
14470;SDS011;7321;50.802;4.336;2023-07-09T13:50:16;11.35;;;9.35;;
14470;SDS011;7321;50.802;4.336;2023-07-09T13:52:48;9.95;;;8.90;;
14470;SDS011;7321;50.802;4.336;2023-07-09T13:55:19;12.10;;;9.00;;
14470;SDS011;7321;50.802;4.336;2023-07-09T13:57:48;9.70;;;8.70;;
14470;SDS011;7321;50.802;4.336;2023-07-09T14:00:15;10.10;;;8.73;;
14470;SDS011;7321;50.802;4.336;2023-07-09T14:02:44;9.18;;;7.90;;
14470;SDS011;7321;50.802;4.336;2023-07-09T14:05:11;9.48;;;8.57;;
14470;SDS011;7321;50.802;4.336;2023-07-09T14:07:40;9.35;;;8.45;;
14470;SDS011;7321;50.802;4.336;2023-07-09T14:10:10;8.95;;;7.55;;
14470;SDS011;7321;50.802;4.336;2023-07-09T14:12:44;9.93;;;8.43;;
14470;SDS011;7321;50.802;4.336;2023-07-09T14:15:13;9.68;;;8.55;;
14470;SDS011;7321;50.802;4.336;2023-07-09T14:17:41;7.95;;;7.20;;
14470;SDS011;7321;50.802;4.336;2023-07-09T14:20:12;9.80;;;8.60;;
14470;SDS011;7321;50.802;4.336;2023-07-09T14:22:40;11.13;;;8.10;;
14470;SDS011;7321;50.802;4.336;2023-07-09T14:25:15;11.35;;;9.75;;
14470;SDS011;7321;50.802;4.336;2023-07-09T14:27:51;8.93;;;7.53;;
14470;SDS011;7321;50.802;4.336;2023-07-09T14:30:21;8.48;;;7.57;;
14470;SDS011;7321;50.802;4.336;2023-07-09T14:32:50;8.13;;;7.43;;
14470;SDS011;7321;50.802;4.336;2023-07-09T14:35:21;9.30;;;7.85;;
14470;SDS011;7321;50.802;4.336;2023-07-09T14:37:49;8.40;;;7.55;;
14470;SDS011;7321;50.802;4.336;2023-07-09T14:40:18;9.57;;;7.10;;
14470;SDS011;7321;50.802;4.336;2023-07-09T14:42:45;9.23;;;7.45;;
14470;SDS011;7321;50.802;4.336;2023-07-09T14:45:16;11.20;;;7.65;;
14470;SDS011;7321;50.802;4.336;2023-07-09T14:47:42;7.72;;;6.60;;
14470;SDS011;7321;50.802;4.336;2023-07-09T14:50:09;9.63;;;7.30;;
14470;SDS011;7321;50.802;4.336;2023-07-09T14:52:35;8.75;;;7.78;;
14470;SDS011;7321;50.802;4.336;2023-07-09T14:55:01;7.82;;;6.47;;
14470;SDS011;7321;50.802;4.336;2023-07-09T14:57:28;8.20;;;7.32;;
14470;SDS011;7321;50.802;4.336;2023-07-09T14:59:56;9.55;;;7.07;;
14470;SDS011;7321;50.802;4.336;2023-07-09T15:05:04;8.35;;;6.97;;
14470;SDS011;7321;50.802;4.336;2023-07-09T15:07:35;10.35;;;6.95;;
14470;SDS011;7321;50.802;4.336;2023-07-09T15:10:01;9.80;;;6.78;;
14470;SDS011;7321;50.802;4.336;2023-07-09T15:12:33;7.65;;;6.47;;
14470;SDS011;7321;50.802;4.336;2023-07-09T15:18:00;9.95;;;6.50;;
14470;SDS011;7321;50.802;4.336;2023-07-09T15:20:33;6.60;;;5.90;;
14470;SDS011;7321;50.802;4.336;2023-07-09T15:22:59;8.38;;;6.43;;
14470;SDS011;7321;50.802;4.336;2023-07-09T15:25:26;7.30;;;6.60;;
14470;SDS011;7321;50.802;4.336;2023-07-09T15:27:53;7.63;;;6.15;;
14470;SDS011;7321;50.802;4.336;2023-07-09T15:30:23;6.40;;;5.80;;
14470;SDS011;7321;50.802;4.336;2023-07-09T15:32:50;8.75;;;6.93;;
14470;SDS011;7321;50.802;4.336;2023-07-09T15:35:21;7.30;;;6.38;;
14470;SDS011;7321;50.802;4.336;2023-07-09T15:37:47;6.35;;;5.75;;
14470;SDS011;7321;50.802;4.336;2023-07-09T15:42:43;8.02;;;5.85;;
14470;SDS011;7321;50.802;4.336;2023-07-09T15:45:13;7.47;;;5.55;;
14470;SDS011;7321;50.802;4.336;2023-07-09T15:47:40;6.15;;;5.55;;
14470;SDS011;7321;50.802;4.336;2023-07-09T15:52:45;6.55;;;5.75;;
14470;SDS011;7321;50.802;4.336;2023-07-09T15:55:16;6.80;;;5.75;;
14470;SDS011;7321;50.802;4.336;2023-07-09T15:57:46;6.28;;;5.63;;
14470;SDS011;7321;50.802;4.336;2023-07-09T16:00:21;7.00;;;5.45;;
14470;SDS011;7321;50.802;4.336;2023-07-09T16:02:51;7.55;;;5.88;;
14470;SDS011;7321;50.802;4.336;2023-07-09T16:05:24;6.72;;;5.97;;
14470;SDS011;7321;50.802;4.336;2023-07-09T16:07:53;8.65;;;6.15;;
14470;SDS011;7321;50.802;4.336;2023-07-09T16:10:21;9.02;;;6.30;;